Time;durP1;ratioP1;P1;durP2;ratioP2;P2;SDS_P1;SDS_P2;PMS_P1;PMS_P2;Temp;Humidity;BMP_temperature;BMP_pressure;BME280_temperature;BME280_humidity;BME280_pressure;Samples;Min_cycle;Max_cycle;Signal;HPM_P1;HPM_P2
2022/01/02 00:00:37;;;;;;;22.00;6.40;;;;;;;7.25;80.23;99746.33;106141;1274;108836;-70
2022/01/02 00:03:23;;;;;;;18.60;6.10;;;;;;;7.26;80.16;99754.42;106208;1274;96605;-71
2022/01/02 00:05:58;;;;;;;18.30;6.90;;;;;;;7.26;80.31;99751.58;106018;1274;96492;-70
2022/01/02 00:08:28;;;;;;;21.80;7.70;;;;;;;7.27;80.19;99753.31;106080;1274;109962;-70
2022/01/02 00:11:04;;;;;;;19.90;7.50;;;;;;;7.26;80.11;99755.80;106081;1274;96401;-70
2022/01/02 00:13:36;;;;;;;23.30;8.40;;;;;;;7.25;80.23;99764.66;106019;1274;108128;-72
2022/01/02 00:16:06;;;;;;;18.10;6.70;;;;;;;7.24;80.09;99762.27;106020;1274;96504;-71
2022/01/02 00:18:39;;;;;;;20.80;7.40;;;;;;;7.19;79.93;99755.64;106064;1274;94246;-71
2022/01/02 00:21:10;;;;;;;19.50;6.70;;;;;;;7.18;80.05;99749.67;106059;1274;109075;-71
2022/01/02 00:24:21;;;;;;;22.70;7.50;;;;;;;7.15;79.98;99755.08;106070;1274;96631;-71
2022/01/02 00:26:45;;;;;;;19.00;6.60;;;;;;;7.14;80.11;99756.56;106085;1274;106744;-68
2022/01/02 00:29:13;;;;;;;22.90;7.70;;;;;;;7.15;79.98;99761.46;106208;1273;94621;-70
2022/01/02 00:31:43;;;;;;;20.40;7.30;;;;;;;7.16;79.95;99755.75;106196;1274;95637;-71
2022/01/02 00:34:13;;;;;;;17.60;6.40;;;;;;;7.14;79.92;99762.36;106227;1273;110016;-71
2022/01/02 00:36:42;;;;;;;22.50;7.70;;;;;;;7.15;79.82;99764.98;106102;1274;94304;-72
2022/01/02 00:39:10;;;;;;;17.20;5.90;;;;;;;7.11;79.80;99761.48;106094;1274;107646;-70
2022/01/02 00:41:55;;;;;;;18.20;5.90;;;;;;;7.07;79.77;99764.63;106146;1274;94595;-69
2022/01/02 00:44:59;;;;;;;20.00;6.80;;;;;;;7.05;79.77;99762.61;106219;1274;96583;-69
2022/01/02 00:47:35;;;;;;;18.60;6.40;;;;;;;7.01;79.83;99755.04;106059;1274;110040;-71
2022/01/02 00:50:15;;;;;;;16.40;5.70;;;;;;;7.01;79.68;99759.29;106205;1274;96511;-71
2022/01/02 00:52:48;;;;;;;19.90;6.50;;;;;;;7.01;79.83;99758.40;106097;1274;107753;-70
2022/01/02 00:55:23;;;;;;;19.80;6.80;;;;;;;7.04;79.69;99764.27;106077;1273;96553;-70
2022/01/02 00:57:53;;;;;;;18.20;6.40;;;;;;;7.02;79.66;99765.21;106099;1274;97235;-70
2022/01/02 01:00:24;;;;;;;12.90;5.10;;;;;;;7.00;79.71;99765.52;106097;1274;110196;-69
2022/01/02 01:02:56;;;;;;;19.00;5.60;;;;;;;6.96;79.54;99767.27;106098;1274;96709;-69
2022/01/02 01:05:27;;;;;;;16.40;5.40;;;;;;;6.96;79.54;99767.63;106195;1274;107697;-70
2022/01/02 01:07:58;;;;;;;14.50;5.10;;;;;;;6.96;79.63;99767.80;106209;1274;96395;-68
2022/01/02 01:10:33;;;;;;;16.50;5.00;;;;;;;6.94;79.47;99767.34;106101;1274;96494;-68
2022/01/02 01:13:08;;;;;;;15.60;5.50;;;;;;;6.91;79.49;99770.53;106095;1274;111011;-69
2022/01/02 01:15:37;;;;;;;16.30;5.90;;;;;;;6.87;79.33;99772.45;106106;1274;95637;-70
2022/01/02 01:18:08;;;;;;;14.60;5.30;;;;;;;6.87;79.56;99775.08;106139;1274;108344;-71
2022/01/02 01:20:42;;;;;;;13.70;5.30;;;;;;;6.87;79.42;99767.85;106071;1274;96518;-70
2022/01/02 01:23:16;;;;;;;16.00;4.60;;;;;;;6.84;79.31;99764.27;106080;1274;94242;-69
2022/01/02 01:25:46;;;;;;;15.60;4.90;;;;;;;6.81;79.11;99763.38;106067;1274;111012;-69
2022/01/02 01:28:16;;;;;;;14.70;4.40;;;;;;;6.81;79.25;99754.55;106080;1274;96718;-69
2022/01/02 01:30:48;;;;;;;19.60;6.10;;;;;;;6.83;79.38;99752.55;106042;1274;108062;-70
2022/01/02 01:33:15;;;;;;;18.90;6.00;;;;;;;6.82;79.36;99749.92;106115;1274;96515;-70
2022/01/02 01:35:43;;;;;;;18.00;6.00;;;;;;;6.83;79.37;99747.21;106077;1274;94235;-70
2022/01/02 01:38:11;;;;;;;18.60;5.40;;;;;;;6.84;79.08;99750.52;106114;1274;109993;-70
2022/01/02 01:40:55;;;;;;;17.90;5.60;;;;;;;6.86;79.28;99749.58;106045;1274;94357;-70
2022/01/02 01:43:37;;;;;;;18.20;5.60;;;;;;;6.88;79.32;99750.02;105999;1274;107749;-70
2022/01/02 01:46:07;;;;;;;17.50;5.30;;;;;;;6.89;79.03;99742.39;106049;1274;96538;-69
2022/01/02 01:48:35;;;;;;;15.70;5.40;;;;;;;6.90;79.34;99740.06;106097;1274;96527;-68
2022/01/02 01:51:03;;;;;;;14.50;5.80;;;;;;;6.89;79.29;99743.29;106107;1274;110117;-68
2022/01/02 01:53:31;;;;;;;16.60;5.80;;;;;;;6.89;79.11;99736.05;106070;1274;96673;-70
2022/01/02 01:55:59;;;;;;;18.20;6.30;;;;;;;6.87;79.07;99732.59;106066;1274;107620;-70
2022/01/02 01:58:27;;;;;;;16.50;6.30;;;;;;;6.88;79.16;99736.11;106117;1274;94253;-69
2022/01/02 02:00:54;;;;;;;17.00;6.10;;;;;;;6.88;79.19;99731.52;106238;1274;96513;-69
2022/01/02 02:03:24;;;;;;;18.00;7.00;;;;;;;6.85;78.84;99730.04;106184;1273;111105;-70
2022/01/02 02:05:53;;;;;;;17.20;5.90;;;;;;;6.84;79.06;99730.95;106087;1274;96613;-70
2022/01/02 02:08:26;;;;;;;17.90;6.00;;;;;;;6.84;79.09;99730.80;107448;1273;106826;-69
2022/01/02 02:10:57;;;;;;;15.40;5.30;;;;;;;6.85;79.09;99730.96;106060;1271;96522;-69
2022/01/02 02:13:27;;;;;;;19.60;6.80;;;;;;;6.83;78.87;99728.73;106183;1274;94542;-70
2022/01/02 02:15:59;;;;;;;15.00;5.20;;;;;;;6.82;79.10;99724.04;106106;1274;110018;-70
2022/01/02 02:18:28;;;;;;;15.80;5.80;;;;;;;6.82;78.84;99722.44;106131;1274;96522;-70
2022/01/02 02:20:56;;;;;;;16.90;5.60;;;;;;;6.81;79.01;99724.23;106126;1274;107584;-70
2022/01/02 02:23:24;;;;;;;14.60;5.50;;;;;;;6.81;78.68;99724.94;106079;1274;96593;-70
2022/01/02 02:25:52;;;;;;;12.90;5.50;;;;;;;6.78;78.74;99729.32;106122;1273;96577;-69
2022/01/02 02:28:25;;;;;;;18.60;5.90;;;;;;;6.75;78.99;99723.27;106115;1274;109938;-69
2022/01/02 02:30:56;;;;;;;18.60;6.20;;;;;;;6.71;78.96;99720.81;106068;1274;96686;-70
2022/01/02 02:33:24;;;;;;;15.90;6.50;;;;;;;6.68;78.81;99725.90;106038;1274;105945;-70
2022/01/02 02:35:54;;;;;;;13.60;5.00;;;;;;;6.64;78.85;99727.83;106108;1274;96651;-69
2022/01/02 02:38:23;;;;;;;15.10;5.50;;;;;;;6.59;78.89;99726.12;106125;1274;96515;-72
2022/01/02 02:40:51;;;;;;;15.60;6.00;;;;;;;6.54;78.92;99721.23;106183;1274;109932;-69
2022/01/02 02:54:15;;;;;;;15.80;5.50;;;;;;;6.39;78.60;99698.64;106167;1272;109994;-70
2022/01/02 02:56:54;;;;;;;19.40;6.90;;;;;;;6.38;78.81;99699.04;106049;1274;95689;-70
2022/01/02 02:59:27;;;;;;;18.00;5.60;;;;;;;6.37;78.79;99695.20;105969;1274;108341;-70
2022/01/02 03:01:58;;;;;;;15.70;6.10;;;;;;;6.35;78.57;99698.13;105985;1274;96639;-72
2022/01/02 03:04:26;;;;;;;18.80;6.60;;;;;;;6.34;78.75;99701.71;106107;1273;94295;-71
2022/01/02 03:06:56;;;;;;;17.10;6.10;;;;;;;6.33;78.73;99695.93;106083;1274;109928;-71
2022/01/02 03:09:41;;;;;;;15.60;5.70;;;;;;;6.32;78.67;99695.27;106105;1274;96530;-71
2022/01/02 03:12:11;;;;;;;19.50;6.20;;;;;;;6.30;78.82;99688.67;106094;1274;106862;-72
2022/01/02 03:14:39;;;;;;;16.20;6.40;;;;;;;6.29;78.76;99679.92;106118;1274;96525;-71
2022/01/02 03:17:08;;;;;;;19.50;5.40;;;;;;;6.27;78.60;99677.89;106076;1274;96653;-71
2022/01/02 03:19:37;;;;;;;17.70;6.00;;;;;;;6.22;78.78;99678.99;106152;1274;110013;-71
2022/01/02 03:22:07;;;;;;;17.90;6.30;;;;;;;6.16;78.62;99678.20;106066;1273;94228;-73
2022/01/02 03:24:36;;;;;;;15.80;6.10;;;;;;;6.13;78.67;99675.86;106025;1272;108106;-72
2022/01/02 03:27:04;;;;;;;18.40;6.80;;;;;;;6.11;78.56;99674.52;106066;1274;94343;-71
2022/01/02 03:29:32;;;;;;;21.00;6.70;;;;;;;6.11;78.67;99671.20;105974;1274;156580;-71
2022/01/02 03:32:02;;;;;;;17.00;5.90;;;;;;;6.09;78.71;99664.77;106043;1273;108984;-72
2022/01/02 03:34:29;;;;;;;16.80;6.20;;;;;;;6.10;78.76;99665.42;106050;1274;96528;-72
2022/01/02 03:37:00;;;;;;;13.90;5.60;;;;;;;6.09;78.54;99667.41;106042;1274;107831;-72
2022/01/02 03:39:28;;;;;;;17.70;5.30;;;;;;;6.05;78.63;99660.54;106071;1274;96515;-72
2022/01/02 03:41:57;;;;;;;15.50;5.60;;;;;;;6.01;78.56;99658.06;106153;1274;96576;-73
2022/01/02 03:44:25;;;;;;;16.60;6.50;;;;;;;5.98;78.48;99657.27;106114;1274;109714;-71
2022/01/02 03:46:53;;;;;;;14.90;5.00;;;;;;;5.94;78.36;99653.06;106091;1274;96541;-70
2022/01/02 03:49:21;;;;;;;16.70;5.60;;;;;;;5.89;78.37;99652.96;106042;1274;107583;-69
2022/01/02 03:51:49;;;;;;;18.70;6.50;;;;;;;5.87;78.40;99651.95;106016;1274;95222;-72
2022/01/02 03:54:16;;;;;;;15.60;5.60;;;;;;;5.82;78.18;99650.45;106019;1274;95427;-70
2022/01/02 03:56:44;;;;;;;16.40;6.20;;;;;;;5.80;78.33;99646.30;106000;1274;109937;-69
2022/01/02 03:59:15;;;;;;;19.30;6.20;;;;;;;5.78;78.56;99647.26;106145;1274;94434;-69
2022/01/02 04:01:44;;;;;;;15.40;5.50;;;;;;;5.77;78.40;99646.94;105999;1274;109009;-70
2022/01/02 04:04:13;;;;;;;17.50;6.10;;;;;;;5.74;78.42;99646.73;106081;1274;96073;-69
2022/01/02 04:06:41;;;;;;;17.30;6.70;;;;;;;5.70;78.38;99646.88;106072;1274;97074;-70
2022/01/02 04:09:09;;;;;;;20.20;6.90;;;;;;;5.68;78.39;99649.47;106040;1274;109940;-68
2022/01/02 04:11:37;;;;;;;16.50;6.20;;;;;;;5.66;78.14;99647.95;106061;1274;96593;-69
2022/01/02 04:14:06;;;;;;;20.10;7.20;;;;;;;5.61;78.12;99649.02;106079;1273;106712;-70
2022/01/02 04:16:33;;;;;;;17.00;6.70;;;;;;;5.54;78.19;99642.80;106067;1274;94263;-68
2022/01/02 04:19:01;;;;;;;18.50;6.90;;;;;;;5.45;78.33;99644.93;106134;1274;96582;-67
2022/01/02 04:21:29;;;;;;;20.50;7.60;;;;;;;5.40;78.27;99642.86;106203;1273;110518;-70
2022/01/02 04:23:57;;;;;;;17.60;6.70;;;;;;;5.36;78.27;99640.06;106181;1274;96622;-69
2022/01/02 04:26:25;;;;;;;21.70;8.30;;;;;;;5.33;78.31;99641.92;106110;1274;107698;-69
2022/01/02 04:28:54;;;;;;;23.20;8.80;;;;;;;5.30;78.22;99635.92;106143;1274;94330;-67
2022/01/02 04:31:22;;;;;;;20.90;8.30;;;;;;;5.26;78.33;99626.41;106099;1274;96484;-70
2022/01/02 04:33:52;;;;;;;23.80;7.70;;;;;;;5.18;78.28;99615.46;106065;1274;110032;-71
2022/01/02 04:36:20;;;;;;;20.30;7.50;;;;;;;5.14;78.42;99619.35;106225;1274;96555;-71
2022/01/02 04:38:48;;;;;;;19.30;8.10;;;;;;;5.13;78.37;99620.77;106121;1274;107365;-70
2022/01/02 04:41:16;;;;;;;20.70;7.40;;;;;;;5.15;78.33;99612.45;106105;1274;96599;-70
2022/01/02 04:43:44;;;;;;;20.00;8.10;;;;;;;5.13;78.41;99611.46;106170;1274;96649;-70
2022/01/02 04:46:14;;;;;;;20.20;8.90;;;;;;;5.11;78.41;99609.98;106110;1274;110459;-69
2022/01/02 04:48:42;;;;;;;22.60;8.80;;;;;;;5.07;78.43;99605.21;106140;1274;96622;-69
2022/01/02 04:51:10;;;;;;;20.80;8.50;;;;;;;5.07;78.44;99601.17;106107;1274;107486;-70
2022/01/02 04:53:46;;;;;;;23.00;9.60;;;;;;;5.04;78.57;99600.77;106131;1274;94254;-69
2022/01/02 04:56:16;;;;;;;27.80;9.70;;;;;;;5.02;78.52;99597.48;106231;1274;96484;-69
2022/01/02 04:58:47;;;;;;;22.50;9.10;;;;;;;5.03;78.56;99589.89;106172;1274;109863;-70
2022/01/02 05:01:16;;;;;;;25.00;10.10;;;;;;;5.03;78.61;99588.34;106200;1273;96265;-70
2022/01/02 05:03:46;;;;;;;20.70;9.50;;;;;;;5.02;78.63;99585.73;106084;1274;107631;-69
2022/01/02 05:06:14;;;;;;;22.70;9.10;;;;;;;5.00;78.60;99580.02;106110;1274;96599;-70
2022/01/02 05:08:44;;;;;;;24.50;10.90;;;;;;;4.97;78.77;99578.57;106111;1274;94302;-69
2022/01/02 05:11:16;;;;;;;26.50;10.80;;;;;;;4.93;78.88;99576.92;106075;1274;111096;-70
2022/01/02 05:13:44;;;;;;;25.70;11.30;;;;;;;4.95;78.83;99573.91;106104;1274;94221;-69
2022/01/02 05:16:13;;;;;;;25.30;10.90;;;;;;;4.95;78.84;99569.30;106061;1274;108472;-70
2022/01/02 05:18:41;;;;;;;23.10;10.30;;;;;;;4.96;78.87;99572.98;106108;1274;97291;-68
2022/01/02 05:21:09;;;;;;;24.40;9.80;;;;;;;4.96;78.94;99576.64;106185;1273;96518;-69
2022/01/02 05:23:36;;;;;;;22.70;8.90;;;;;;;4.97;78.99;99582.42;106097;1274;110807;-70
2022/01/02 05:26:06;;;;;;;21.60;8.60;;;;;;;4.98;79.06;99586.92;106110;1274;94970;-70
2022/01/02 05:28:34;;;;;;;21.20;8.60;;;;;;;5.02;79.17;99581.33;106167;1274;106183;-70
2022/01/02 05:31:03;;;;;;;22.00;9.30;;;;;;;5.07;79.17;99578.50;106134;1274;94952;-70
2022/01/02 05:33:31;;;;;;;21.40;9.50;;;;;;;5.10;79.01;99583.09;106120;1274;97193;-69
2022/01/02 05:35:58;;;;;;;24.30;9.60;;;;;;;5.11;78.99;99586.40;106057;1274;108794;-69
2022/01/02 05:38:28;;;;;;;21.50;8.40;;;;;;;5.14;79.08;99573.09;106074;1274;94244;-69
2022/01/02 05:40:56;;;;;;;20.90;8.50;;;;;;;5.13;78.97;99569.44;106089;1273;106725;-70
2022/01/02 05:43:25;;;;;;;22.40;8.60;;;;;;;5.12;79.03;99569.82;106100;1274;96492;-70
2022/01/02 05:45:52;;;;;;;26.40;10.00;;;;;;;5.13;79.28;99558.03;106112;1274;94623;-69
2022/01/02 05:48:21;;;;;;;22.50;9.60;;;;;;;5.08;79.10;99568.08;106112;1274;111151;-70
2022/01/02 05:50:48;;;;;;;21.90;8.90;;;;;;;5.10;79.29;99577.15;106168;1274;96468;-67
2022/01/02 05:53:16;;;;;;;19.80;7.80;;;;;;;5.14;79.27;99574.67;106065;1274;108821;-68
2022/01/02 05:55:46;;;;;;;18.80;7.50;;;;;;;5.17;79.15;99576.64;106075;1274;96575;-70
2022/01/02 05:58:14;;;;;;;18.60;7.20;;;;;;;5.19;79.23;99569.53;106112;1274;96512;-68
2022/01/02 06:00:42;;;;;;;18.40;7.40;;;;;;;5.19;79.24;99566.04;106033;1274;109261;-68
2022/01/02 06:03:11;;;;;;;18.30;7.10;;;;;;;5.18;79.20;99554.82;106097;1274;96523;-70
2022/01/02 06:05:40;;;;;;;20.00;7.70;;;;;;;5.16;79.35;99546.80;106091;1274;108257;-69
2022/01/02 06:08:09;;;;;;;22.40;8.60;;;;;;;5.12;79.37;99541.89;106100;1274;96549;-69
2022/01/02 06:10:38;;;;;;;22.60;8.40;;;;;;;5.08;79.49;99531.88;106058;1274;95661;-70
2022/01/02 06:13:08;;;;;;;23.60;9.00;;;;;;;5.06;79.54;99526.69;106044;1274;110561;-69
2022/01/02 06:15:36;;;;;;;22.40;8.60;;;;;;;5.02;79.62;99520.88;106109;1274;94238;-71
2022/01/02 06:18:05;;;;;;;19.80;8.40;;;;;;;5.00;79.61;99521.64;106101;1274;107772;-71
2022/01/02 06:20:33;;;;;;;19.90;8.40;;;;;;;5.02;79.65;99519.46;106152;1274;94286;-71
2022/01/02 06:23:03;;;;;;;21.40;9.30;;;;;;;5.03;79.69;99515.89;106242;1274;98006;-71
2022/01/02 06:25:31;;;;;;;21.90;10.00;;;;;;;5.03;79.68;99516.08;106124;1274;110055;-71
2022/01/02 06:27:59;;;;;;;20.30;8.80;;;;;;;5.05;79.68;99517.73;106098;1274;96541;-70
2022/01/02 06:30:27;;;;;;;23.30;10.10;;;;;;;5.09;79.65;99513.89;106078;1274;107774;-69
2022/01/02 06:32:58;;;;;;;24.90;10.40;;;;;;;5.10;79.72;99509.45;106065;1274;97972;-70
2022/01/02 06:35:31;;;;;;;25.60;11.40;;;;;;;5.10;79.74;99501.02;106049;1274;96533;-70
2022/01/02 06:38:18;;;;;;;24.40;9.70;;;;;;;5.08;79.68;99494.43;106018;1274;110080;-69
2022/01/02 06:40:45;;;;;;;24.30;10.30;;;;;;;5.06;79.78;99485.00;106073;1274;96635;-69
2022/01/02 06:43:16;;;;;;;23.10;9.30;;;;;;;5.04;79.68;99478.24;106083;1274;107707;-69
2022/01/02 06:45:46;;;;;;;24.30;9.80;;;;;;;5.01;79.79;99479.58;106069;1274;96638;-70
2022/01/02 06:48:16;;;;;;;24.70;9.20;;;;;;;5.00;79.84;99474.20;106099;1274;96482;-71
2022/01/02 06:50:43;;;;;;;24.70;10.00;;;;;;;4.97;79.91;99464.64;106143;1274;109972;-70
2022/01/02 06:53:11;;;;;;;22.30;9.20;;;;;;;4.94;79.88;99460.40;106160;1274;96751;-69
2022/01/02 06:55:39;;;;;;;23.60;9.60;;;;;;;4.93;79.97;99456.05;106068;1273;109015;-69
2022/01/02 06:58:08;;;;;;;22.50;9.60;;;;;;;4.93;80.10;99449.52;106056;1273;96523;-69
2022/01/02 07:00:38;;;;;;;24.40;10.40;;;;;;;4.91;80.04;99446.09;106069;1274;94267;-70
2022/01/02 07:03:06;;;;;;;24.60;10.10;;;;;;;4.90;79.99;99442.10;106057;1272;110691;-70
2022/01/02 07:05:37;;;;;;;26.10;10.70;;;;;;;4.93;80.06;99446.89;106112;1274;96597;-69
2022/01/02 07:08:05;;;;;;;24.30;10.10;;;;;;;4.98;80.15;99443.70;106053;1274;108278;-70
2022/01/02 07:10:33;;;;;;;25.70;10.30;;;;;;;5.05;80.16;99446.37;106093;1274;95039;-71
2022/01/02 07:13:01;;;;;;;23.20;9.60;;;;;;;5.12;80.31;99444.84;106189;1274;95676;-69
2022/01/02 07:15:29;;;;;;;21.30;9.30;;;;;;;5.17;80.23;99439.34;106202;1274;110751;-70
2022/01/02 07:18:00;;;;;;;21.20;9.40;;;;;;;5.15;80.22;99436.44;106124;1274;96538;-70
2022/01/02 07:20:28;;;;;;;22.10;8.60;;;;;;;5.18;80.22;99436.33;106111;1274;109539;-71
2022/01/02 07:22:56;;;;;;;23.30;9.10;;;;;;;5.20;80.30;99424.11;106050;1274;95047;-70
2022/01/02 07:25:23;;;;;;;22.50;9.20;;;;;;;5.24;80.24;99422.17;106084;1274;96595;-71
2022/01/02 07:27:53;;;;;;;22.60;9.30;;;;;;;5.28;80.40;99413.73;106058;1272;110609;-68
2022/01/02 07:30:23;;;;;;;20.70;9.30;;;;;;;5.28;80.26;99404.42;106088;1274;96533;-72
2022/01/02 07:32:50;;;;;;;20.00;8.30;;;;;;;5.30;80.29;99401.84;106077;1274;108211;-70
2022/01/02 07:35:20;;;;;;;22.30;9.50;;;;;;;5.32;80.37;99403.34;106065;1274;96543;-68
2022/01/02 07:37:48;;;;;;;21.30;8.80;;;;;;;5.34;80.31;99406.78;106076;1274;94244;-69
2022/01/02 07:40:17;;;;;;;23.60;10.10;;;;;;;5.35;80.38;99400.40;106078;1274;110588;-70
2022/01/02 07:42:47;;;;;;;21.00;9.60;;;;;;;5.41;80.38;99395.55;106059;1274;96613;-72
2022/01/02 07:45:15;;;;;;;21.70;9.40;;;;;;;5.48;80.35;99391.52;106109;1274;107737;-73
2022/01/02 07:47:45;;;;;;;22.90;9.90;;;;;;;5.54;80.48;99392.31;106100;1274;96646;-70
2022/01/02 07:50:15;;;;;;;21.10;9.50;;;;;;;5.58;80.34;99380.69;106109;1272;96539;-72
2022/01/02 07:52:43;;;;;;;22.70;8.70;;;;;;;5.64;80.30;99375.45;106087;1273;110065;-72
2022/01/02 07:55:10;;;;;;;23.40;9.70;;;;;;;5.69;80.41;99366.64;106129;1273;94893;-71
2022/01/02 07:57:38;;;;;;;22.10;9.30;;;;;;;5.74;80.46;99366.94;106135;1274;107852;-71
2022/01/02 08:00:07;;;;;;;24.30;10.00;;;;;;;5.78;80.48;99371.84;106103;1274;95374;-70
2022/01/02 08:02:37;;;;;;;23.00;9.90;;;;;;;5.81;80.59;99368.00;106083;1274;96500;-71
2022/01/02 08:05:10;;;;;;;22.80;9.70;;;;;;;5.86;80.57;99368.30;106133;1274;109081;-70
2022/01/02 08:07:40;;;;;;;21.40;9.40;;;;;;;5.91;80.58;99365.08;106223;1274;96516;-70
2022/01/02 08:10:08;;;;;;;19.20;7.50;;;;;;;5.99;80.60;99362.75;106248;1274;108413;-72
2022/01/02 08:12:36;;;;;;;21.10;8.50;;;;;;;6.04;80.70;99354.58;106215;1274;96921;-71
2022/01/02 08:15:05;;;;;;;20.00;8.50;;;;;;;6.11;80.70;99341.23;106246;1274;96493;-69
2022/01/02 08:17:33;;;;;;;20.70;7.90;;;;;;;6.13;80.76;99335.48;106143;1274;110000;-68
2022/01/02 08:20:03;;;;;;;19.50;8.00;;;;;;;6.16;80.85;99330.60;106179;1273;96605;-69
2022/01/02 08:22:30;;;;;;;21.20;9.40;;;;;;;6.19;80.78;99317.92;106041;1274;107723;-71
2022/01/02 08:24:58;;;;;;;22.80;10.90;;;;;;;6.25;81.08;99316.02;106114;1274;94343;-70
2022/01/02 08:27:26;;;;;;;18.20;7.90;;;;;;;6.36;80.93;99312.67;106133;1274;94979;-70
2022/01/02 08:29:55;;;;;;;18.40;8.00;;;;;;;6.49;81.13;99311.30;106128;1274;109765;-72
2022/01/02 08:32:25;;;;;;;20.60;8.80;;;;;;;6.63;80.90;99313.59;106168;1274;94330;-71
2022/01/02 08:34:53;;;;;;;20.20;8.90;;;;;;;6.74;80.91;99312.83;106111;1273;107497;-71
2022/01/02 08:37:21;;;;;;;24.10;9.30;;;;;;;6.85;80.96;99308.04;106175;1274;96472;-70
2022/01/02 08:39:49;;;;;;;21.40;8.40;;;;;;;6.92;80.94;99300.80;106190;1274;96596;-69
2022/01/02 08:42:17;;;;;;;22.60;9.60;;;;;;;6.96;81.00;99303.71;106079;1273;109964;-70
2022/01/02 08:44:48;;;;;;;21.00;9.30;;;;;;;7.01;80.98;99297.99;106143;1274;96809;-69
2022/01/02 08:47:17;;;;;;;19.10;7.50;;;;;;;7.09;80.96;99296.15;106077;1274;107752;-69
2022/01/02 08:49:44;;;;;;;20.70;8.40;;;;;;;7.18;81.02;99288.95;106119;1274;96623;-70
2022/01/02 08:52:12;;;;;;;20.70;8.40;;;;;;;7.27;81.01;99289.38;106194;1274;96476;-70
2022/01/02 08:54:40;;;;;;;18.00;7.90;;;;;;;7.38;80.98;99297.37;106075;1274;110125;-70
2022/01/02 08:57:11;;;;;;;20.40;8.30;;;;;;;7.51;81.12;99302.34;106129;1274;96533;-70
2022/01/02 08:59:41;;;;;;;23.00;8.10;;;;;;;7.61;80.97;99305.65;106220;1274;108891;-73
2022/01/02 09:02:08;;;;;;;17.00;7.30;;;;;;;7.82;81.00;99302.16;106075;1274;97672;-74
2022/01/02 09:04:36;;;;;;;18.00;7.00;;;;;;;8.16;80.85;99300.92;106116;1274;96609;-72
2022/01/02 09:07:06;;;;;;;16.70;6.70;;;;;;;8.40;81.06;99299.68;106082;1274;110148;-73
2022/01/02 09:09:34;;;;;;;17.50;6.30;;;;;;;8.63;81.26;99296.23;106153;1274;96510;-72
2022/01/02 09:12:03;;;;;;;15.70;6.50;;;;;;;8.84;81.31;99292.14;106129;1273;108091;-74
2022/01/02 09:14:32;;;;;;;13.70;5.50;;;;;;;9.04;81.15;99288.41;106201;1274;94256;-72
2022/01/02 09:17:00;;;;;;;13.90;6.10;;;;;;;9.25;80.85;99282.81;106147;1273;96602;-74
2022/01/02 09:19:28;;;;;;;14.40;5.70;;;;;;;9.43;80.84;99280.79;106145;1274;109897;-71
2022/01/02 09:21:58;;;;;;;13.50;5.70;;;;;;;9.66;80.82;99274.39;106134;1274;94256;-73
2022/01/02 09:24:29;;;;;;;15.20;6.30;;;;;;;9.88;80.76;99257.36;106123;1274;107724;-72
2022/01/02 09:26:59;;;;;;;12.20;5.20;;;;;;;10.09;80.81;99256.45;106111;1274;94497;-72
2022/01/02 09:29:28;;;;;;;15.50;5.70;;;;;;;10.27;80.66;99251.89;106129;1274;96213;-73
2022/01/02 09:31:57;;;;;;;13.20;5.50;;;;;;;10.36;80.68;99246.11;106394;1274;110031;-71
2022/01/02 09:34:25;;;;;;;13.10;5.60;;;;;;;10.42;80.68;99249.59;106153;1274;96548;-72
2022/01/02 09:36:55;;;;;;;14.30;5.80;;;;;;;10.44;80.62;99240.31;106117;1274;107664;-71
2022/01/02 09:39:23;;;;;;;14.10;5.80;;;;;;;10.39;80.70;99223.95;106082;1273;96506;-73
2022/01/02 09:41:51;;;;;;;14.00;5.50;;;;;;;10.32;80.56;99212.23;106130;1274;96424;-73
2022/01/02 09:44:19;;;;;;;14.60;5.80;;;;;;;10.22;80.34;99214.69;106102;1274;110115;-72
2022/01/02 09:46:52;;;;;;;14.40;5.70;;;;;;;10.06;80.08;99214.36;106139;1274;96475;-72
2022/01/02 09:49:21;;;;;;;15.60;5.60;;;;;;;9.93;80.38;99215.41;106126;1274;107640;-72
2022/01/02 09:51:51;;;;;;;12.90;5.20;;;;;;;9.87;80.44;99206.56;106008;1274;96538;-72
2022/01/02 09:54:18;;;;;;;12.60;5.10;;;;;;;9.82;80.46;99199.97;106085;1274;96619;-73
2022/01/02 09:56:46;;;;;;;11.40;4.60;;;;;;;9.80;80.53;99199.23;106106;1274;110094;-73
2022/01/02 09:59:16;;;;;;;13.70;5.50;;;;;;;9.73;80.24;99185.20;106132;1274;96531;-71
2022/01/02 10:01:44;;;;;;;10.50;4.90;;;;;;;9.62;80.23;99179.88;106101;1274;108378;-71
2022/01/02 10:04:32;;;;;;;14.00;4.90;;;;;;;9.51;80.04;99178.70;106210;1274;96417;-76
2022/01/02 10:06:59;;;;;;;15.80;6.00;;;;;;;9.41;80.16;99178.40;106166;1274;96506;-74
2022/01/02 10:09:33;;;;;;;13.40;5.30;;;;;;;9.36;80.18;99180.02;106072;1274;110122;-74
2022/01/02 10:12:28;;;;;;;13.70;5.60;;;;;;;9.35;80.08;99179.89;106118;1274;95019;-73
2022/01/02 10:15:08;;;;;;;11.80;5.20;;;;;;;9.31;80.13;99171.88;106182;1274;107803;-72
2022/01/02 10:17:54;;;;;;;14.90;5.50;;;;;;;9.27;80.01;99172.98;106104;1274;96414;-70
2022/01/02 10:20:27;;;;;;;14.40;5.70;;;;;;;9.27;80.16;99170.14;106090;1273;96609;-71
2022/01/02 10:23:18;;;;;;;13.80;5.50;;;;;;;9.31;80.11;99167.93;106133;1274;110102;-73
2022/01/02 10:25:53;;;;;;;12.90;5.40;;;;;;;9.34;80.08;99158.36;106221;1274;95388;-71
2022/01/02 10:28:29;;;;;;;13.70;5.00;;;;;;;9.35;80.18;99148.91;106136;1274;107491;-73
2022/01/02 10:31:14;;;;;;;11.30;4.70;;;;;;;9.35;80.10;99136.89;106131;1273;97981;-72
2022/01/02 10:33:54;;;;;;;10.50;4.20;;;;;;;9.34;79.82;99129.34;106090;1274;94343;-72
2022/01/02 10:36:28;;;;;;;14.20;5.00;;;;;;;9.29;79.63;99113.08;106099;1274;110665;-76
2022/01/02 10:39:03;;;;;;;12.70;5.10;;;;;;;9.27;79.68;99094.79;106147;1274;96596;-74
2022/01/02 10:41:42;;;;;;;13.20;4.50;;;;;;;9.33;79.97;99080.90;106018;1273;107801;-72
2022/01/02 10:44:34;;;;;;;16.60;4.90;;;;;;;9.41;79.94;99066.25;106082;1274;96528;-71
2022/01/02 10:47:20;;;;;;;12.30;4.40;;;;;;;9.44;79.66;99055.44;106163;1274;94630;-71
2022/01/02 10:50:03;;;;;;;11.20;4.20;;;;;;;9.44;79.45;99053.85;106142;1273;110046;-71
2022/01/02 10:52:41;;;;;;;11.80;4.50;;;;;;;9.47;79.63;99049.74;106095;1274;94612;-69
2022/01/02 10:55:18;;;;;;;10.10;3.80;;;;;;;9.50;79.15;99043.89;106044;1274;107747;-70
2022/01/02 10:57:49;;;;;;;9.30;4.00;;;;;;;9.51;78.65;99052.25;106021;1274;95080;-70
2022/01/02 11:00:20;;;;;;;8.70;4.30;;;;;;;9.52;78.53;99052.73;106136;1274;96589;-71
2022/01/02 11:02:50;;;;;;;9.80;4.10;;;;;;;9.55;78.58;99041.38;106031;1274;110083;-70
2022/01/02 11:05:27;;;;;;;8.40;3.80;;;;;;;9.64;78.84;99037.24;106067;1274;96513;-69
2022/01/02 11:08:00;;;;;;;7.60;3.50;;;;;;;9.75;78.81;99031.90;105974;1274;107900;-70
2022/01/02 11:10:33;;;;;;;9.90;3.70;;;;;;;9.80;78.75;99033.08;105932;1273;96632;-70
2022/01/02 11:13:05;;;;;;;8.60;3.60;;;;;;;9.84;78.29;99033.56;106014;1274;97213;-68
2022/01/02 11:15:35;;;;;;;8.20;3.90;;;;;;;9.85;78.44;99023.96;106084;1274;110598;-68
2022/01/02 11:18:06;;;;;;;8.10;3.80;;;;;;;9.91;78.46;99025.10;106031;1274;96513;-68
2022/01/02 11:20:34;;;;;;;8.80;4.00;;;;;;;9.98;78.57;99019.84;106005;1274;107749;-69
2022/01/02 11:23:20;;;;;;;9.30;3.90;;;;;;;10.03;78.26;99018.97;105828;1274;96398;-69
2022/01/02 11:26:32;;;;;;;9.60;3.90;;;;;;;9.98;77.93;99018.35;105999;1274;95300;-69
2022/01/02 11:29:16;;;;;;;7.70;3.50;;;;;;;9.93;77.91;99014.48;106097;1274;110519;-67
2022/01/02 11:31:44;;;;;;;7.20;3.90;;;;;;;9.93;78.04;99011.52;105957;1274;95027;-67
2022/01/02 11:34:32;;;;;;;9.60;4.10;;;;;;;9.96;78.03;99015.48;105966;1274;108786;-68
2022/01/02 11:37:12;;;;;;;11.10;4.30;;;;;;;9.95;77.78;99009.02;106042;1274;94239;-70
2022/01/02 11:40:04;;;;;;;8.40;3.90;;;;;;;9.94;77.73;99013.19;106038;1274;94500;-69
2022/01/02 11:42:36;;;;;;;10.70;4.40;;;;;;;10.01;77.95;99018.00;106070;1274;110041;-69
2022/01/02 11:45:09;;;;;;;9.80;4.50;;;;;;;10.08;77.61;99016.98;106111;1274;96508;-68
2022/01/02 11:47:49;;;;;;;12.60;4.70;;;;;;;10.09;77.64;99012.14;106187;1274;108296;-68
2022/01/02 11:50:34;;;;;;;12.00;4.50;;;;;;;10.13;77.74;99013.64;106129;1273;94276;-69